Terminal Aerodrome Forecast
Issued by NWS Topeka, KS

Home | Current Version | Previous Version | Text Only | Print | Product List | Glossary Off
Versions: 1 2 3 4 5 6 7 8 9 10 11 12 13 14 15 16 17 18 19 20 21 22 23 24 25 26

000
FTUS43 KTOP 011700
TAFTOP
TAF
KTOP 011739Z 0118/0218 28006KT P6SM SCT050
     FM020200 01004KT P6SM SCT200
     FM020900 VRB02KT 4SM BR FEW250
     FM021400 04004KT P6SM FEW250=

USA.gov is the U.S. government's official web portal to all federal, state and local government web resources and services.